Main page
METAR-TAF:

METAR-TAF

Airports :

Santa Fe Regional Airport

Santa Fe, New Mexico, United States

latitude: 35-36-38N, longitude: 106-05-42W, elevation: 6344 ft

Current weather observation

The report was made 1 hour and 6 minutes ago, at 01:53 UTC
Wind 7 mph from the North/Northeast
Temperature 34°F
Humidity 64%
Pressure 30.34 in. Hg
Visibility: 10 miles
Clear sky

METAR: KSAF 150153Z 02006KT 10SM CLR 01/M05 A3034 RMK AO2 SLP291 T00061050

Time: 19:59 (02:59 UTC)

Forecast

The report was made 3 hours and 39 minutes ago, at 23:20 UTC
Forecast valid from 15 at 00 UTC to 15 at 24 UTC
Wind 9 mph from the North/Northwest
Visibility: 6 miles
Few clouds at a height of 25000 ft
From 15 at 0900 UTC
Wind 14 mph from the North
Visibility: 6 miles
Few clouds at a height of 25000 ft
From 15 at 1900 UTC
Wind 9 mph from the Northwest
Visibility: 6 miles
Few clouds at a height of 25000 ft

TAF: KSAF 142320Z 1500/1524 34008KT P6SM FEW250 FM150900 36012KT P6SM FEW250 FM151900 31008KT P6SM FEW250

Weather observations and forecasts of more than 4000 airports (METAR and TAF reports).

The available stations are represented by yellow and red dots on the map.

Hover mouse over dot to see the name of the station.

Then click to see weather observations and forecasts.

To change the map : click on the green buttons with a black cross to zoom in, on the green button with a dash to zoom out, or on the green arrows for adjacent maps.


METAR-TAF: